createdAt,value
2018-09-09T00:00:50.007Z,86.1
2018-09-09T00:02:50.218Z,86.1
2018-09-09T00:04:50.564Z,85.4
2018-09-09T00:06:50.682Z,85.5
2018-09-09T00:08:50.746Z,85.2
2018-09-09T00:10:49.817Z,84.8
2018-09-09T00:12:49.889Z,85.8
2018-09-09T00:14:49.984Z,85.4
2018-09-09T00:16:50.134Z,85.0
2018-09-09T00:18:50.065Z,86.5
2018-09-09T00:20:50.037Z,85.4
2018-09-09T00:22:50.015Z,85.4
2018-09-09T00:24:50.117Z,84.7
2018-09-09T00:26:50.273Z,85.8
2018-09-09T00:28:50.310Z,85.3
2018-09-09T00:30:50.276Z,85.3
2018-09-09T00:32:50.281Z,86.2
2018-09-09T00:34:49.829Z,86.6
2018-09-09T00:36:50.000Z,86.6
2018-09-09T00:38:49.988Z,86.6
2018-09-09T00:40:50.032Z,87.1
2018-09-09T00:42:50.212Z,86.7
2018-09-09T00:44:50.173Z,86.7
2018-09-09T00:46:50.372Z,86.8
2018-09-09T00:48:50.314Z,86.8
2018-09-09T00:50:50.290Z,87.3
2018-09-09T00:52:50.280Z,87.3
2018-09-09T00:54:50.377Z,87.3
2018-09-09T00:56:50.597Z,87.9
2018-09-09T00:58:50.620Z,87.8
2018-09-09T01:00:50.604Z,87.9
2018-09-09T01:02:50.380Z,87.8
2018-09-09T01:04:50.580Z,86.8
2018-09-09T01:06:50.731Z,86.6
2018-09-09T01:08:49.951Z,86.2
2018-09-09T01:10:49.952Z,85.9
2018-09-09T01:12:49.957Z,85.3
2018-09-09T01:14:50.068Z,85.8
2018-09-09T01:16:50.356Z,85.5
2018-09-09T01:18:50.381Z,85.7
2018-09-09T01:20:50.433Z,85.8
2018-09-09T01:22:50.507Z,85.8
2018-09-09T01:24:50.537Z,85.3
2018-09-09T01:26:50.821Z,85.2
2018-09-09T01:28:49.831Z,85.3
2018-09-09T01:30:49.910Z,84.5
2018-09-09T01:32:49.981Z,84.7
2018-09-09T01:34:50.530Z,84.6
2018-09-09T01:36:49.859Z,84.3
2018-09-09T01:38:49.984Z,84.7
2018-09-09T01:40:49.986Z,83.7
2018-09-09T01:42:50.148Z,83.7
2018-09-09T01:44:50.180Z,83.5
2018-09-09T01:46:50.268Z,82.8
2018-09-09T01:48:50.304Z,83.0
2018-09-09T01:50:50.312Z,83.5
2018-09-09T01:52:50.354Z,83.2
2018-09-09T01:54:50.348Z,83.2
2018-09-09T01:56:50.625Z,81.7
2018-09-09T01:58:50.645Z,81.3
2018-09-09T02:00:50.693Z,81.2
2018-09-09T02:02:50.674Z,82.2
2018-09-09T02:04:50.224Z,81.1
2018-09-09T02:06:50.496Z,81.9
2018-09-09T02:08:49.933Z,80.7
2018-09-09T02:10:49.987Z,80.6
2018-09-09T02:12:50.031Z,80.9
2018-09-09T02:14:50.039Z,80.6
2018-09-09T02:16:50.282Z,80.1
2018-09-09T02:18:50.330Z,79.4
2018-09-09T02:20:50.281Z,79.4
2018-09-09T02:22:50.344Z,79.4
2018-09-09T02:24:50.394Z,80.4
2018-09-09T02:26:50.543Z,81.7
2018-09-09T02:28:50.667Z,81.9
2018-09-09T02:30:50.654Z,80.1
2018-09-09T02:32:50.734Z,80.7
2018-09-09T02:34:50.029Z,80.8
2018-09-09T02:36:50.232Z,82.5
2018-09-09T02:38:50.379Z,81.4
2018-09-09T02:40:50.494Z,81.7
2018-09-09T02:42:50.495Z,81.7
2018-09-09T02:44:50.672Z,82.2
2018-09-09T02:46:50.162Z,81.4
2018-09-09T02:48:50.203Z,82.1
2018-09-09T02:50:50.221Z,82.1
2018-09-09T02:52:50.322Z,82.3
2018-09-09T02:54:50.473Z,82.9
2018-09-09T02:56:50.698Z,83.7
2018-09-09T02:58:50.703Z,83.7
2018-09-09T03:00:49.822Z,84.1
2018-09-09T03:02:50.183Z,83.7
2018-09-09T03:04:50.553Z,84.0
2018-09-09T03:06:50.753Z,83.8
2018-09-09T03:08:50.748Z,83.3
2018-09-09T03:10:50.768Z,84.1
2018-09-09T03:12:50.742Z,83.9
2018-09-09T03:14:49.823Z,84.0
2018-09-09T03:16:50.180Z,84.2
2018-09-09T03:18:50.207Z,83.8
2018-09-09T03:20:50.276Z,84.0
2018-09-09T03:22:50.294Z,84.5
2018-09-09T03:24:50.237Z,85.3
2018-09-09T03:26:50.510Z,85.5
2018-09-09T03:28:51.489Z,86.1
2018-09-09T03:30:50.620Z,85.7
2018-09-09T03:32:50.657Z,85.6
2018-09-09T03:34:50.017Z,86.5
2018-09-09T03:36:50.077Z,86.6
2018-09-09T03:38:50.140Z,86.6
2018-09-09T03:40:50.276Z,86.7
2018-09-09T03:42:50.310Z,87.0
2018-09-09T03:44:50.381Z,87.7
2018-09-09T03:46:50.506Z,88.4
2018-09-09T03:48:50.554Z,87.8
2018-09-09T03:50:50.512Z,88.5
2018-09-09T03:52:50.543Z,89.0
2018-09-09T03:54:50.540Z,89.2
2018-09-09T03:56:50.703Z,88.4
2018-09-09T03:58:50.767Z,89.0
2018-09-09T04:00:49.818Z,88.6
2018-09-09T04:02:49.938Z,88.7
2018-09-09T04:04:50.456Z,88.8
2018-09-09T04:06:50.589Z,88.7
2018-09-09T04:08:50.659Z,88.9
2018-09-09T04:10:50.783Z,89.4
2018-09-09T04:12:49.801Z,89.4
2018-09-09T04:14:49.926Z,89.4
2018-09-09T04:16:50.199Z,89.2
2018-09-09T04:18:50.231Z,88.8
2018-09-09T04:20:50.325Z,88.9
2018-09-09T04:22:50.408Z,88.6
2018-09-09T04:24:50.500Z,88.1
2018-09-09T04:26:50.423Z,87.6
2018-09-09T04:28:50.478Z,87.2
2018-09-09T04:30:50.824Z,87.3
2018-09-09T04:32:49.939Z,86.7
2018-09-09T04:34:50.530Z,86.9
2018-09-09T04:36:50.774Z,88.1
2018-09-09T04:38:49.785Z,88.2
2018-09-09T04:40:49.879Z,87.4
2018-09-09T04:42:49.975Z,87.8
2018-09-09T04:44:50.034Z,87.0
2018-09-09T04:46:50.348Z,85.9
2018-09-09T04:48:50.365Z,85.0
2018-09-09T04:50:50.404Z,85.0
2018-09-09T04:52:50.504Z,86.3
2018-09-09T04:54:50.484Z,86.7
2018-09-09T04:56:49.798Z,86.0
2018-09-09T04:58:49.860Z,86.1
2018-09-09T05:00:49.948Z,87.4
2018-09-09T05:02:49.988Z,86.5
2018-09-09T05:04:50.235Z,86.9
2018-09-09T05:06:50.464Z,85.9
2018-09-09T05:08:50.483Z,86.1
2018-09-09T05:10:50.437Z,85.9
2018-09-09T05:12:50.497Z,86.7
2018-09-09T05:14:50.664Z,86.3
2018-09-09T05:16:49.848Z,86.3
2018-09-09T05:18:49.935Z,86.3
2018-09-09T05:20:50.098Z,86.4
2018-09-09T05:22:50.308Z,85.6
2018-09-09T05:24:50.319Z,86.1
2018-09-09T05:26:50.649Z,85.0
2018-09-09T05:28:50.653Z,84.8
2018-09-09T05:30:50.662Z,83.8
2018-09-09T05:32:50.638Z,83.5
2018-09-09T05:34:50.084Z,83.2
2018-09-09T05:36:50.048Z,82.5
2018-09-09T05:38:50.167Z,80.4
2018-09-09T05:40:50.224Z,81.9
2018-09-09T05:42:50.280Z,82.5
2018-09-09T05:44:50.923Z,81.4
2018-09-09T05:46:50.213Z,82.3
2018-09-09T05:48:50.187Z,82.5
2018-09-09T05:50:50.337Z,81.6
2018-09-09T05:52:50.334Z,81.1
2018-09-09T05:54:50.398Z,80.1
2018-09-09T05:56:50.613Z,79.5
2018-09-09T05:58:50.664Z,77.4
2018-09-09T06:00:50.622Z,77.3
2018-09-09T06:02:50.726Z,78.3
2018-09-09T06:04:50.106Z,78.8
2018-09-09T06:06:50.367Z,79.5
2018-09-09T06:08:50.360Z,78.8
2018-09-09T06:10:50.361Z,76.9
2018-09-09T06:12:50.410Z,77.1
2018-09-09T06:14:50.463Z,76.1
2018-09-09T06:16:50.883Z,76.1
2018-09-09T06:18:50.132Z,71
2018-09-09T06:20:50.184Z,71
2018-09-09T06:22:50.306Z,70
2018-09-09T06:24:50.325Z,70
2018-09-09T06:26:50.564Z,70
2018-09-09T06:28:50.701Z,71
2018-09-09T06:30:49.814Z,71
2018-09-09T06:32:50.021Z,70
2018-09-09T06:34:50.492Z,70
2018-09-09T06:36:50.750Z,70
2018-09-09T06:38:50.920Z,70
2018-09-09T06:40:50.199Z,70
2018-09-09T06:42:50.215Z,70
2018-09-09T06:44:50.364Z,69
2018-09-09T06:46:50.535Z,69
2018-09-09T06:48:50.562Z,69
2018-09-09T06:50:49.776Z,69
2018-09-09T06:52:50.035Z,68
2018-09-09T06:54:50.076Z,68
2018-09-09T06:56:50.438Z,68
2018-09-09T06:58:50.477Z,68
2018-09-09T07:00:50.532Z,68
2018-09-09T07:02:50.613Z,68
2018-09-09T07:04:49.969Z,68
2018-09-09T07:06:50.321Z,68
2018-09-09T07:08:50.453Z,68
2018-09-09T07:10:50.929Z,68
2018-09-09T07:12:50.090Z,68
2018-09-09T07:14:50.144Z,67
2018-09-09T07:16:50.394Z,67
2018-09-09T07:18:50.447Z,66
2018-09-09T07:20:50.520Z,66
2018-09-09T07:22:50.711Z,66
2018-09-09T07:24:50.706Z,66
2018-09-09T07:26:50.005Z,66.0
2018-09-09T07:28:50.074Z,66
2018-09-09T07:30:50.189Z,66
2018-09-09T07:32:50.217Z,65
2018-09-09T07:34:50.450Z,66
2018-09-09T07:36:50.785Z,66
2018-09-09T07:38:49.848Z,65
2018-09-09T07:40:49.856Z,64
2018-09-09T07:42:49.869Z,64
2018-09-09T07:44:49.984Z,64
2018-09-09T07:46:50.203Z,64
2018-09-09T07:48:50.265Z,64
2018-09-09T07:50:50.902Z,64
2018-09-09T07:52:50.137Z,64
2018-09-09T07:54:50.313Z,64
2018-09-09T07:56:50.463Z,65
2018-09-09T07:58:50.478Z,65
2018-09-09T08:00:50.485Z,65
2018-09-09T08:02:50.569Z,65
2018-09-09T08:04:49.935Z,65
2018-09-09T08:06:50.319Z,65
2018-09-09T08:08:50.425Z,65
2018-09-09T08:10:50.486Z,65
2018-09-09T08:12:50.664Z,65
2018-09-09T08:14:50.735Z,65
2018-09-09T08:16:49.994Z,65
2018-09-09T08:18:50.044Z,65
2018-09-09T08:20:50.219Z,65
2018-09-09T08:22:50.247Z,65
2018-09-09T08:24:50.329Z,65
2018-09-09T08:26:50.576Z,65
2018-09-09T08:28:50.609Z,64
2018-09-09T08:30:50.658Z,64
2018-09-09T08:32:50.752Z,64
2018-09-09T08:34:50.799Z,64
2018-09-09T08:36:50.169Z,64
2018-09-09T08:38:50.214Z,64
2018-09-09T08:40:50.240Z,64
2018-09-09T08:42:50.400Z,64
2018-09-09T08:44:50.429Z,64
2018-09-09T08:46:50.692Z,64
2018-09-09T08:48:50.732Z,64
2018-09-09T08:50:49.959Z,63
2018-09-09T08:52:49.991Z,63
2018-09-09T08:54:50.057Z,63
2018-09-09T08:56:50.181Z,62
2018-09-09T08:58:50.201Z,62
2018-09-09T09:00:50.248Z,62
2018-09-09T09:02:50.279Z,62
2018-09-09T09:04:50.549Z,62
2018-09-09T09:06:49.837Z,62
2018-09-09T09:08:49.937Z,62
2018-09-09T09:10:50.008Z,61
2018-09-09T09:12:50.167Z,61
2018-09-09T09:14:50.781Z,61
2018-09-09T09:16:50.142Z,60
2018-09-09T09:18:50.213Z,60
2018-09-09T09:20:50.305Z,60
2018-09-09T09:22:50.410Z,59
2018-09-09T09:24:50.562Z,59
2018-09-09T09:26:49.980Z,59
2018-09-09T09:28:50.103Z,59
2018-09-09T09:30:51.094Z,58
2018-09-09T09:32:50.289Z,58
2018-09-09T09:34:50.537Z,58
2018-09-09T09:36:50.776Z,58
2018-09-09T09:38:49.822Z,52
2018-09-09T09:40:49.939Z,51
2018-09-09T09:42:49.928Z,51
2018-09-09T09:44:50.475Z,51
2018-09-09T09:46:50.823Z,49
2018-09-09T09:48:49.839Z,50
2018-09-09T09:50:49.993Z,50
2018-09-09T09:52:50.023Z,50
2018-09-09T09:54:50.027Z,50
2018-09-09T09:56:50.262Z,50
2018-09-09T09:58:50.348Z,50
2018-09-09T10:00:50.448Z,48
2018-09-09T10:02:50.514Z,48
2018-09-09T10:04:49.868Z,48
2018-09-09T10:06:50.182Z,48
2018-09-09T10:08:50.371Z,47
2018-09-09T10:10:50.479Z,47
2018-09-09T10:12:50.487Z,48
2018-09-09T10:14:50.703Z,48
2018-09-09T10:16:49.996Z,48
2018-09-09T10:18:50.089Z,48
2018-09-09T10:20:50.137Z,48
2018-09-09T10:22:50.307Z,48
2018-09-09T10:24:50.090Z,47
2018-09-09T10:26:50.226Z,47
2018-09-09T10:28:50.287Z,48
2018-09-09T10:30:50.422Z,48
2018-09-09T10:32:50.561Z,48
2018-09-09T10:34:49.922Z,48
2018-09-09T10:36:50.187Z,47
2018-09-09T10:38:50.323Z,47
2018-09-09T10:40:50.727Z,46
2018-09-09T10:42:49.803Z,46
2018-09-09T10:44:49.901Z,47
2018-09-09T10:46:51.152Z,47
2018-09-09T10:48:50.311Z,46
2018-09-09T10:50:50.393Z,44
2018-09-09T10:52:50.486Z,44
2018-09-09T10:54:50.481Z,44
2018-09-09T10:56:50.730Z,45
2018-09-09T10:58:50.048Z,45
2018-09-09T11:00:50.277Z,45
2018-09-09T11:02:50.407Z,46
2018-09-09T11:04:49.811Z,45
2018-09-09T11:06:50.416Z,45
2018-09-09T11:08:50.479Z,45
2018-09-09T11:10:50.521Z,46
2018-09-09T11:12:50.980Z,44
2018-09-09T11:14:50.037Z,45
2018-09-09T11:16:50.276Z,44
2018-09-09T11:18:50.500Z,44
2018-09-09T11:20:50.565Z,45
2018-09-09T11:22:50.734Z,44
2018-09-09T11:24:49.829Z,44
2018-09-09T11:26:50.114Z,44
2018-09-09T11:28:50.252Z,44
2018-09-09T11:30:50.225Z,44
2018-09-09T11:32:50.245Z,44
2018-09-09T11:34:50.606Z,44
2018-09-09T11:36:49.853Z,43
2018-09-09T11:38:49.939Z,43
2018-09-09T11:40:50.504Z,42
2018-09-09T11:42:49.789Z,43
2018-09-09T11:44:49.834Z,43
2018-09-09T11:46:50.097Z,43
2018-09-09T11:48:50.174Z,43
2018-09-09T11:50:50.483Z,41
2018-09-09T11:52:50.500Z,41
2018-09-09T11:54:50.534Z,41
2018-09-09T11:56:50.756Z,43
2018-09-09T11:58:49.925Z,43
2018-09-09T12:00:49.989Z,41
2018-09-09T12:02:50.120Z,41
2018-09-09T12:04:50.356Z,42
2018-09-09T12:06:50.603Z,41
2018-09-09T12:08:50.617Z,41
2018-09-09T12:10:49.805Z,39
2018-09-09T12:12:49.876Z,39
2018-09-09T12:14:50.001Z,39
2018-09-09T12:16:50.259Z,38
2018-09-09T12:18:50.273Z,38
2018-09-09T12:20:50.290Z,39
2018-09-09T12:22:50.385Z,39
2018-09-09T12:24:50.428Z,39
2018-09-09T12:26:50.565Z,38
2018-09-09T12:28:50.549Z,38
2018-09-09T12:30:50.516Z,38
2018-09-09T12:32:50.584Z,38
2018-09-09T12:34:50.101Z,38
2018-09-09T12:36:50.296Z,39
2018-09-09T12:38:50.245Z,38
2018-09-09T12:40:50.297Z,37
2018-09-09T12:42:50.374Z,37
2018-09-09T12:44:50.453Z,38
2018-09-09T12:46:50.781Z,37
2018-09-09T12:48:49.798Z,37
2018-09-09T12:50:50.691Z,37
2018-09-09T12:52:50.025Z,38
2018-09-09T12:54:50.045Z,38
2018-09-09T12:56:50.206Z,37
2018-09-09T12:58:50.405Z,36
2018-09-09T13:00:50.468Z,36
2018-09-09T13:02:50.517Z,36
2018-09-09T13:04:50.762Z,36
2018-09-09T13:06:50.012Z,37
2018-09-09T13:08:50.011Z,37
2018-09-09T13:10:50.105Z,37
2018-09-09T13:12:50.161Z,35
2018-09-09T13:14:49.801Z,35
2018-09-09T13:16:50.136Z,34
2018-09-09T13:18:50.357Z,35
2018-09-09T13:20:50.715Z,35
2018-09-09T13:22:49.899Z,34
2018-09-09T13:24:49.932Z,35
2018-09-09T13:26:50.325Z,34
2018-09-09T13:28:50.385Z,34
2018-09-09T13:30:50.554Z,34
2018-09-09T13:32:50.530Z,34
2018-09-09T13:34:49.915Z,34
2018-09-09T13:36:50.168Z,34
2018-09-09T13:38:50.229Z,34
2018-09-09T13:40:50.260Z,34
2018-09-09T13:42:50.257Z,34
2018-09-09T13:44:50.288Z,34
2018-09-09T13:46:50.470Z,35
2018-09-09T13:48:50.434Z,35
2018-09-09T13:50:50.518Z,34
2018-09-09T13:52:50.549Z,34
2018-09-09T13:54:50.675Z,34
2018-09-09T13:56:49.987Z,33
2018-09-09T13:58:50.059Z,33
2018-09-09T14:00:50.079Z,33
2018-09-09T14:02:50.104Z,32
2018-09-09T14:04:50.537Z,33
2018-09-09T14:06:49.813Z,33
2018-09-09T14:08:49.972Z,33
2018-09-09T14:10:50.116Z,33
2018-09-09T14:12:50.216Z,33
2018-09-09T14:14:50.267Z,33
2018-09-09T14:16:50.429Z,33
2018-09-09T14:18:50.490Z,33
2018-09-09T14:20:50.681Z,33
2018-09-09T14:22:49.960Z,33
2018-09-09T14:24:49.967Z,33
2018-09-09T14:26:50.121Z,33
2018-09-09T14:28:50.165Z,33
2018-09-09T14:30:50.217Z,33
2018-09-09T14:32:50.358Z,33
2018-09-09T14:34:50.760Z,33
2018-09-09T14:36:50.123Z,33
2018-09-09T14:38:50.113Z,33
2018-09-09T14:40:50.223Z,33
2018-09-09T14:42:50.278Z,33
2018-09-09T14:44:50.357Z,33
2018-09-09T14:46:50.626Z,33
2018-09-09T14:48:50.720Z,32
2018-09-09T14:50:49.825Z,33
2018-09-09T14:52:49.916Z,33
2018-09-09T14:54:49.947Z,33
2018-09-09T14:56:50.315Z,33
2018-09-09T14:58:50.379Z,32
2018-09-09T15:00:50.486Z,32
2018-09-09T15:02:50.626Z,33
2018-09-09T15:04:50.190Z,32
2018-09-09T15:06:50.927Z,32
2018-09-09T15:08:50.081Z,33
2018-09-09T15:10:50.084Z,33
2018-09-09T15:12:50.127Z,33
2018-09-09T15:14:50.259Z,33
2018-09-09T15:16:50.497Z,33
2018-09-09T15:18:50.719Z,33
2018-09-09T15:20:50.704Z,33
2018-09-09T15:22:50.649Z,33
2018-09-09T15:24:49.773Z,33
2018-09-09T15:26:50.229Z,33
2018-09-09T15:28:50.768Z,34
2018-09-09T15:30:49.908Z,34
2018-09-09T15:32:49.989Z,34
2018-09-09T15:34:50.347Z,34
2018-09-09T15:36:50.508Z,34
2018-09-09T15:38:50.512Z,34
2018-09-09T15:40:50.516Z,35
2018-09-09T15:42:50.525Z,34
2018-09-09T15:44:50.601Z,34
2018-09-09T15:46:49.822Z,34
2018-09-09T15:48:49.805Z,34
2018-09-09T15:50:49.832Z,34
2018-09-09T15:52:49.957Z,34
2018-09-09T15:54:49.963Z,34
2018-09-09T15:56:50.288Z,34
2018-09-09T15:58:50.427Z,34
2018-09-09T16:00:50.417Z,33
2018-09-09T16:02:50.406Z,33
2018-09-09T16:04:49.778Z,34
2018-09-09T16:06:50.049Z,34
2018-09-09T16:08:50.044Z,34
2018-09-09T16:10:50.113Z,34
2018-09-09T16:12:50.574Z,34
2018-09-09T16:14:50.618Z,34
2018-09-09T16:16:49.925Z,34
2018-09-09T16:18:50.494Z,34
2018-09-09T16:20:50.638Z,34
2018-09-09T16:22:50.589Z,35
2018-09-09T16:24:50.698Z,35
2018-09-09T16:26:49.932Z,35
2018-09-09T16:28:50.015Z,35
2018-09-09T16:30:50.751Z,35
2018-09-09T16:32:49.952Z,35
2018-09-09T16:34:50.370Z,35
2018-09-09T16:36:50.460Z,35
2018-09-09T16:38:50.495Z,35
2018-09-09T16:40:50.555Z,35
2018-09-09T16:42:50.505Z,35
2018-09-09T16:44:50.562Z,36
2018-09-09T16:46:50.439Z,36
2018-09-09T16:48:50.588Z,36
2018-09-09T16:50:50.657Z,36
2018-09-09T16:52:51.059Z,37
2018-09-09T16:54:50.103Z,37
2018-09-09T16:56:50.356Z,37
2018-09-09T16:58:50.484Z,37
2018-09-09T17:00:50.535Z,37.5
2018-09-09T17:02:50.541Z,37.8
2018-09-09T17:04:50.268Z,38.5
2018-09-09T17:06:50.505Z,39.3
2018-09-09T17:08:50.604Z,39.1
2018-09-09T17:10:50.655Z,40.6
2018-09-09T17:12:50.726Z,41.3
2018-09-09T17:14:50.771Z,41.0
2018-09-09T17:16:50.295Z,40.8
2018-09-09T17:18:49.888Z,41.7
2018-09-09T17:20:49.860Z,42.2
2018-09-09T17:22:49.943Z,42.3
2018-09-09T17:24:50.014Z,43.3
2018-09-09T17:26:50.290Z,43.6
2018-09-09T17:28:50.640Z,45.6
2018-09-09T17:30:50.593Z,45.1
2018-09-09T17:32:50.684Z,46.2
2018-09-09T17:34:50.232Z,46.2
2018-09-09T17:36:50.398Z,44.7
2018-09-09T17:38:50.405Z,44.5
2018-09-09T17:40:50.402Z,44.9
2018-09-09T17:42:50.497Z,46.1
2018-09-09T17:44:50.534Z,47.8
2018-09-09T17:46:50.773Z,48.4
2018-09-09T17:48:49.815Z,48.4
2018-09-09T17:50:49.957Z,51.4
2018-09-09T17:52:50.228Z,52.5
2018-09-09T17:54:50.278Z,52.5
2018-09-09T17:56:50.435Z,52.6
2018-09-09T17:58:50.510Z,52.8
2018-09-09T18:00:50.545Z,52.6
2018-09-09T18:02:50.581Z,54.1
2018-09-09T18:04:49.991Z,52.3
2018-09-09T18:06:50.173Z,54.0
2018-09-09T18:08:50.180Z,53.8
2018-09-09T18:10:50.436Z,53.7
2018-09-09T18:12:50.401Z,54.3
2018-09-09T18:14:50.488Z,55.7
2018-09-09T18:16:50.608Z,53.9
2018-09-09T18:18:50.696Z,54.4
2018-09-09T18:20:51.254Z,54.5
2018-09-09T18:22:50.736Z,55.2
2018-09-09T18:24:50.787Z,57.0
2018-09-09T18:26:50.036Z,57.0
2018-09-09T18:28:50.074Z,55.7
2018-09-09T18:30:50.106Z,56.8
2018-09-09T18:32:50.141Z,57.6
2018-09-09T18:34:50.833Z,58.4
2018-09-09T18:36:50.003Z,57.4
2018-09-09T18:38:50.605Z,58.1
2018-09-09T18:40:49.801Z,57.6
2018-09-09T18:42:49.831Z,57.9
2018-09-09T18:44:50.253Z,57.9
2018-09-09T18:46:50.425Z,58.9
2018-09-09T18:48:50.482Z,59.7
2018-09-09T18:50:50.513Z,59.8
2018-09-09T18:52:50.490Z,59.8
2018-09-09T18:54:50.580Z,60.3
2018-09-09T18:56:49.839Z,60.8
2018-09-09T18:58:49.972Z,61.4
2018-09-09T19:00:50.079Z,61.4
2018-09-09T19:02:50.156Z,61.0
2018-09-09T19:04:50.479Z,61.3
2018-09-09T19:06:50.765Z,62.3
2018-09-09T19:08:49.858Z,62.0
2018-09-09T19:10:49.983Z,63.0
2018-09-09T19:12:50.085Z,63.0
2018-09-09T19:14:50.130Z,63.3
2018-09-09T19:16:50.357Z,63.9
2018-09-09T19:18:50.421Z,63.8
2018-09-09T19:20:50.477Z,63.5
2018-09-09T19:22:50.710Z,63.4
2018-09-09T19:24:49.815Z,63.6
2018-09-09T19:26:49.972Z,63.9
2018-09-09T19:28:50.349Z,64.9
2018-09-09T19:30:50.312Z,65.6
2018-09-09T19:32:50.354Z,65.7
2018-09-09T19:34:50.727Z,66.7
2018-09-09T19:36:49.929Z,66.0
2018-09-09T19:38:49.889Z,68.0
2018-09-09T19:40:50.005Z,68.0
2018-09-09T19:42:50.205Z,68.2
2018-09-09T19:44:50.142Z,68.8
2018-09-09T19:46:50.314Z,68.6
2018-09-09T19:48:50.308Z,68.8
2018-09-09T19:50:50.305Z,68.2
2018-09-09T19:52:50.250Z,69.0
2018-09-09T19:54:50.330Z,68.6
2018-09-09T19:56:50.433Z,68.4
2018-09-09T19:58:50.474Z,69.1
2018-09-09T20:00:50.457Z,69.7
2018-09-09T20:02:50.456Z,69.6
2018-09-09T20:04:51.321Z,69.9
2018-09-09T20:06:50.544Z,70.8
2018-09-09T20:08:50.520Z,70.8
2018-09-09T20:10:50.466Z,70.6
2018-09-09T20:12:50.501Z,71.5
2018-09-09T20:14:50.438Z,70.4
2018-09-09T20:16:50.652Z,70.8
2018-09-09T20:18:50.647Z,72.6
2018-09-09T20:20:49.910Z,72.5
2018-09-09T20:22:50.260Z,72.8
2018-09-09T20:24:50.397Z,73.0
2018-09-09T20:26:50.589Z,72.3
2018-09-09T20:28:50.661Z,73.2
2018-09-09T20:30:49.843Z,73.6
2018-09-09T20:32:49.827Z,73.7
2018-09-09T20:34:50.268Z,74.0
2018-09-09T20:36:50.399Z,74.6
2018-09-09T20:38:51.119Z,75.0
2018-09-09T20:40:50.243Z,75.1
2018-09-09T20:42:50.348Z,75.6
2018-09-09T20:44:50.411Z,75.9
2018-09-09T20:46:50.613Z,76.8
2018-09-09T20:48:50.638Z,76.9
2018-09-09T20:50:50.610Z,76.4
2018-09-09T20:52:50.743Z,77.1
2018-09-09T20:54:50.782Z,77.4
2018-09-09T20:56:50.021Z,77.5
2018-09-09T20:58:50.039Z,77.8
2018-09-09T21:00:50.049Z,78.3
2018-09-09T21:02:50.072Z,78.4
2018-09-09T21:04:50.305Z,78.4
2018-09-09T21:06:50.448Z,78.8
2018-09-09T21:08:50.467Z,79.2
2018-09-09T21:10:50.558Z,79.5
2018-09-09T21:12:50.521Z,79.8
2018-09-09T21:14:50.563Z,79.7
2018-09-09T21:16:50.646Z,79.7
2018-09-09T21:18:50.625Z,80.0
2018-09-09T21:20:50.711Z,79.9
2018-09-09T21:22:50.685Z,79.9
2018-09-09T21:24:50.680Z,80.3
2018-09-09T21:26:50.037Z,80.3
2018-09-09T21:28:50.131Z,80.4
2018-09-09T21:30:50.145Z,81.3
2018-09-09T21:32:50.157Z,81.3
2018-09-09T21:34:50.511Z,81.5
2018-09-09T21:36:50.669Z,81.0
2018-09-09T21:38:50.674Z,80.5
2018-09-09T21:40:49.875Z,80.7
2018-09-09T21:42:49.873Z,81.2
2018-09-09T21:44:49.922Z,81.3
2018-09-09T21:46:50.073Z,80.8
2018-09-09T21:48:50.100Z,81.4
2018-09-09T21:50:50.080Z,82.4
2018-09-09T21:52:50.165Z,82.1
2018-09-09T21:54:50.172Z,82.5
2018-09-09T21:56:50.391Z,83.0
2018-09-09T21:58:50.537Z,82.8
2018-09-09T22:00:50.505Z,83.0
2018-09-09T22:02:50.600Z,83.5
2018-09-09T22:04:50.278Z,83.5
2018-09-09T22:06:50.444Z,83.2
2018-09-09T22:08:50.510Z,83.2
2018-09-09T22:10:50.545Z,83.7
2018-09-09T22:12:50.469Z,84.2
2018-09-09T22:14:50.538Z,84.3
2018-09-09T22:16:50.760Z,83.6
2018-09-09T22:18:49.853Z,83.9
2018-09-09T22:20:49.915Z,84.0
2018-09-09T22:22:49.945Z,84.5
2018-09-09T22:24:50.081Z,84.8
2018-09-09T22:26:50.268Z,84.6
2018-09-09T22:28:50.263Z,84.6
2018-09-09T22:30:50.278Z,84.9
2018-09-09T22:32:50.463Z,84.7
2018-09-09T22:34:49.951Z,85.2
2018-09-09T22:36:50.115Z,84.8
2018-09-09T22:38:50.152Z,84.8
2018-09-09T22:40:50.225Z,84.8
2018-09-09T22:42:50.401Z,85.7
2018-09-09T22:44:50.387Z,86.1
2018-09-09T22:46:50.535Z,85.3
2018-09-09T22:48:50.437Z,85.5
2018-09-09T22:50:50.523Z,85.8
2018-09-09T22:52:50.615Z,86.3
2018-09-09T22:54:49.800Z,86.0
2018-09-09T22:56:50.107Z,85.8
2018-09-09T22:58:50.147Z,85.8
2018-09-09T23:00:50.137Z,86.2
2018-09-09T23:02:50.283Z,86.6
2018-09-09T23:04:50.673Z,87.1
2018-09-09T23:06:49.939Z,86.8
2018-09-09T23:08:49.952Z,87.4
2018-09-09T23:10:50.028Z,87.0
2018-09-09T23:12:50.077Z,87.3
2018-09-09T23:14:50.453Z,88.0
2018-09-09T23:16:50.654Z,88.0
2018-09-09T23:18:50.619Z,87.5
2018-09-09T23:20:50.608Z,87.2
2018-09-09T23:22:50.619Z,87.6
2018-09-09T23:24:50.586Z,87.9
2018-09-09T23:26:49.844Z,87.7
2018-09-09T23:28:49.913Z,87.9
2018-09-09T23:30:49.990Z,88.6
2018-09-09T23:32:50.035Z,88.1
2018-09-09T23:34:50.485Z,88.1
2018-09-09T23:36:50.692Z,88.3
2018-09-09T23:38:50.679Z,88.6
2018-09-09T23:40:50.714Z,89.1
2018-09-09T23:42:50.649Z,89.0
2018-09-09T23:44:50.648Z,88.8
2018-09-09T23:46:49.868Z,89.2
2018-09-09T23:48:49.912Z,89.0
2018-09-09T23:50:50.008Z,89.0
2018-09-09T23:52:49.949Z,89.0
2018-09-09T23:54:50.046Z,89.1
2018-09-09T23:56:50.276Z,89.6
2018-09-09T23:58:50.289Z,89.6
